Time;durP1;ratioP1;P1;durP2;ratioP2;P2;SDS_P1;SDS_P2;PMS_P1;PMS_P2;Temp;Humidity;BMP_temperature;BMP_pressure;BME280_temperature;BME280_humidity;BME280_pressure;Samples;Min_cycle;Max_cycle;Signal;HPM_P1;HPM_P2
2022/10/01 00:00:33;;;;;;;;;;;10.10;99.90;;;;;;5027848;28;20462;-83
2022/10/01 00:02:59;;;;;;;;;;;10.20;99.90;;;;;;5019497;28;19932;-84
2022/10/01 00:05:24;;;;;;;;;;;10.20;99.90;;;;;;5029426;28;20033;-84
2022/10/01 00:07:50;;;;;;;;;;;10.50;99.90;;;;;;5025856;28;19917;-81
2022/10/01 00:10:15;;;;;;;;;;;10.40;99.90;;;;;;5021999;28;19917;-82
2022/10/01 00:12:45;;;;;;;;;;;10.40;99.90;;;;;;5028350;28;20681;-83
2022/10/01 00:15:12;;;;;;;;;;;10.50;99.90;;;;;;5024384;28;19909;-83
2022/10/01 00:17:38;;;;;;;;;;;10.50;99.90;;;;;;5028261;28;20388;-84
2022/10/01 00:20:04;;;;;;;;;;;10.60;99.90;;;;;;5025570;28;19997;-84
2022/10/01 00:22:31;;;;;;;;;;;10.40;99.90;;;;;;5026667;28;20060;-84
2022/10/01 00:24:58;;;;;;;;;;;10.40;99.90;;;;;;5013516;28;20486;-81
2022/10/01 00:27:27;;;;;;;;;;;10.30;99.90;;;;;;5019122;28;20014;-80
2022/10/01 00:29:53;;;;;;;;;;;10.30;99.90;;;;;;5027100;28;19917;-83
2022/10/01 00:32:21;;;;;;;;;;;10.30;99.90;;;;;;5027183;28;19970;-81
2022/10/01 00:34:47;;;;;;;;;;;10.50;99.90;;;;;;5027003;28;20002;-82
2022/10/01 00:37:13;;;;;;;;;;;10.30;99.90;;;;;;5028119;28;19924;-82
2022/10/01 00:39:39;;;;;;;;;;;10.00;99.90;;;;;;5025832;28;19917;-81
2022/10/01 00:42:18;;;;;;;;;;;9.90;99.90;;;;;;5026662;28;19928;-83
2022/10/01 00:44:44;;;;;;;;;;;9.90;99.90;;;;;;5027739;28;19921;-83
2022/10/01 00:47:30;;;;;;;;;;;10.00;99.90;;;;;;5027251;28;20391;-81
2022/10/01 00:50:04;;;;;;;;;;;10.30;99.90;;;;;;5023038;28;19913;-81
2022/10/01 00:52:31;;;;;;;;;;;10.40;99.90;;;;;;5026139;28;19917;-80
2022/10/01 00:54:58;;;;;;;;;;;10.30;99.90;;;;;;5027850;28;19924;-80
2022/10/01 00:57:25;;;;;;;;;;;10.20;99.90;;;;;;5024343;28;20620;-80
2022/10/01 00:59:53;;;;;;;;;;;10.20;99.90;;;;;;5028098;28;19924;-80
2022/10/01 01:02:18;;;;;;;;;;;10.20;99.90;;;;;;5020067;28;20031;-81
2022/10/01 01:04:44;;;;;;;;;;;10.10;99.90;;;;;;5027878;28;20040;-80
2022/10/01 01:07:10;;;;;;;;;;;10.20;99.90;;;;;;5026006;28;19940;-81
2022/10/01 01:09:38;;;;;;;;;;;10.20;99.90;;;;;;5027237;28;19943;-80
2022/10/01 01:12:23;;;;;;;;;;;10.20;99.90;;;;;;5027546;28;19917;-80
2022/10/01 01:14:56;;;;;;;;;;;10.40;99.90;;;;;;5025379;28;19968;-82
2022/10/01 01:17:32;;;;;;;;;;;10.80;99.90;;;;;;5026527;28;20307;-82
2022/10/01 01:20:09;;;;;;;;;;;11.00;99.90;;;;;;5026252;28;19925;-80
2022/10/01 01:22:36;;;;;;;;;;;11.00;99.90;;;;;;5026348;28;20602;-81
2022/10/01 01:25:04;;;;;;;;;;;11.00;99.90;;;;;;5026750;28;19917;-80
2022/10/01 01:27:42;;;;;;;;;;;11.00;99.90;;;;;;5026399;28;19917;-82
2022/10/01 01:30:12;;;;;;;;;;;11.10;99.90;;;;;;5024013;28;19917;-82
2022/10/01 01:32:41;;;;;;;;;;;11.10;99.90;;;;;;5025026;28;19917;-82
2022/10/01 01:35:08;;;;;;;;;;;11.10;99.90;;;;;;5026216;28;20300;-81
2022/10/01 01:37:37;;;;;;;;;;;11.10;99.90;;;;;;5027278;28;19917;-81
2022/10/01 01:40:04;;;;;;;;;;;11.00;99.90;;;;;;5026337;28;19948;-81
2022/10/01 01:42:34;;;;;;;;;;;11.10;99.90;;;;;;5027022;28;19917;-80
2022/10/01 01:45:00;;;;;;;;;;;11.10;99.90;;;;;;5027012;28;19917;-80
2022/10/01 01:47:28;;;;;;;;;;;11.10;99.90;;;;;;5027233;28;19917;-80
2022/10/01 01:49:54;;;;;;;;;;;11.10;99.90;;;;;;5024086;28;19913;-80
2022/10/01 01:52:19;;;;;;;;;;;11.10;99.90;;;;;;5026893;28;19939;-80
2022/10/01 01:54:48;;;;;;;;;;;11.00;99.90;;;;;;5026497;28;20007;-79
2022/10/01 01:57:18;;;;;;;;;;;11.10;99.90;;;;;;5026647;28;19917;-80
2022/10/01 01:59:43;;;;;;;;;;;11.10;99.90;;;;;;5026931;28;19971;-79
2022/10/01 02:02:24;;;;;;;;;;;11.00;99.90;;;;;;5026531;28;19917;-79
2022/10/01 02:04:55;;;;;;;;;;;11.00;99.90;;;;;;5027528;28;19943;-80
2022/10/01 02:07:20;;;;;;;;;;;11.00;99.90;;;;;;5025004;28;19917;-80
2022/10/01 02:09:53;;;;;;;;;;;11.00;99.90;;;;;;5026265;28;20003;-81
2022/10/01 02:12:29;;;;;;;;;;;11.00;99.90;;;;;;5026432;28;19919;-81
2022/10/01 02:15:00;;;;;;;;;;;10.90;99.90;;;;;;5026622;28;19999;-79
2022/10/01 02:17:38;;;;;;;;;;;10.80;99.90;;;;;;5026138;28;19921;-80
2022/10/01 02:20:09;;;;;;;;;;;10.80;99.90;;;;;;5026414;28;20402;-80
2022/10/01 02:22:46;;;;;;;;;;;10.80;99.90;;;;;;5020704;28;19922;-79
2022/10/01 02:25:12;;;;;;;;;;;10.90;99.90;;;;;;5025764;28;19933;-79
2022/10/01 02:27:47;;;;;;;;;;;10.80;99.90;;;;;;5030042;28;19921;-78
2022/10/01 02:30:14;;;;;;;;;;;10.90;99.90;;;;;;5027750;28;19936;-79
2022/10/01 02:32:42;;;;;;;;;;;10.90;99.90;;;;;;5029771;28;19917;-79
2022/10/01 02:35:10;;;;;;;;;;;10.80;99.90;;;;;;5026893;28;19914;-80
2022/10/01 02:37:37;;;;;;;;;;;10.60;99.90;;;;;;5030432;28;19917;-80
2022/10/01 02:40:03;;;;;;;;;;;10.60;99.90;;;;;;5028988;28;20736;-80
2022/10/01 02:42:29;;;;;;;;;;;10.80;99.90;;;;;;5029565;28;20475;-78
2022/10/01 02:45:01;;;;;;;;;;;10.90;99.90;;;;;;5029520;28;19982;-77
2022/10/01 02:47:35;;;;;;;;;;;11.00;99.90;;;;;;5030029;28;19994;-78
2022/10/01 02:50:01;;;;;;;;;;;11.10;99.90;;;;;;5018115;28;19917;-78
2022/10/01 02:52:40;;;;;;;;;;;11.00;99.90;;;;;;5018896;28;19921;-79
2022/10/01 02:55:06;;;;;;;;;;;10.90;99.90;;;;;;5021538;28;20381;-79
2022/10/01 02:57:31;;;;;;;;;;;11.00;99.90;;;;;;5029814;28;19968;-80
2022/10/01 03:00:03;;;;;;;;;;;11.00;99.90;;;;;;5027433;28;19988;-80
2022/10/01 03:02:30;;;;;;;;;;;11.10;99.90;;;;;;5028741;28;19913;-78
2022/10/01 03:04:56;;;;;;;;;;;11.10;99.90;;;;;;5028314;28;19928;-79
2022/10/01 03:07:22;;;;;;;;;;;11.10;99.90;;;;;;5026651;28;19924;-79
2022/10/01 03:09:48;;;;;;;;;;;11.10;99.90;;;;;;5028981;28;20381;-79
2022/10/01 03:12:15;;;;;;;;;;;11.00;99.90;;;;;;5029302;28;19928;-80
2022/10/01 03:14:41;;;;;;;;;;;11.00;99.90;;;;;;5029116;28;19913;-79
2022/10/01 03:17:07;;;;;;;;;;;11.00;99.90;;;;;;5028137;28;20395;-80
2022/10/01 03:19:32;;;;;;;;;;;11.00;99.90;;;;;;5028122;28;19924;-79
2022/10/01 03:21:58;;;;;;;;;;;11.00;99.90;;;;;;5028601;28;20370;-80
2022/10/01 03:24:24;;;;;;;;;;;11.00;99.90;;;;;;5029680;28;19925;-79
2022/10/01 03:26:50;;;;;;;;;;;11.00;99.90;;;;;;5029111;28;19913;-80
2022/10/01 03:29:15;;;;;;;;;;;11.00;99.90;;;;;;5027926;28;20316;-80
2022/10/01 03:31:41;;;;;;;;;;;11.00;99.90;;;;;;5028518;28;19916;-80
2022/10/01 03:34:06;;;;;;;;;;;10.80;99.90;;;;;;5029729;28;19975;-79
2022/10/01 03:36:32;;;;;;;;;;;10.90;99.90;;;;;;5028725;28;20717;-80
2022/10/01 03:38:58;;;;;;;;;;;10.90;99.90;;;;;;5028162;28;19995;-80
2022/10/01 03:41:23;;;;;;;;;;;10.80;99.90;;;;;;5026794;28;19927;-79
2022/10/01 03:43:49;;;;;;;;;;;10.90;99.90;;;;;;5029269;28;19921;-79
2022/10/01 03:46:14;;;;;;;;;;;11.00;99.90;;;;;;5029230;28;19917;-76
2022/10/01 03:48:40;;;;;;;;;;;11.20;99.90;;;;;;5026901;28;19917;-80
2022/10/01 03:51:05;;;;;;;;;;;11.00;99.90;;;;;;5027684;28;19913;-80
2022/10/01 03:53:31;;;;;;;;;;;11.10;99.90;;;;;;5028832;28;20388;-80
2022/10/01 03:55:57;;;;;;;;;;;11.20;99.90;;;;;;5029007;28;20007;-81
2022/10/01 03:58:23;;;;;;;;;;;11.20;99.90;;;;;;5026506;28;19917;-80
2022/10/01 04:00:49;;;;;;;;;;;11.20;99.90;;;;;;5029316;28;19967;-80
2022/10/01 04:03:14;;;;;;;;;;;11.10;99.90;;;;;;5027807;28;19948;-78
2022/10/01 04:05:41;;;;;;;;;;;11.10;99.90;;;;;;5023358;28;19923;-79
2022/10/01 04:08:07;;;;;;;;;;;11.10;99.90;;;;;;5025401;28;19913;-79
2022/10/01 04:10:32;;;;;;;;;;;11.00;99.90;;;;;;5026905;28;19971;-79
2022/10/01 04:12:58;;;;;;;;;;;10.80;99.90;;;;;;5028399;28;19941;-78
2022/10/01 04:15:24;;;;;;;;;;;10.90;99.90;;;;;;5027843;28;20450;-79
2022/10/01 04:17:50;;;;;;;;;;;10.90;99.90;;;;;;5026786;28;20016;-79
2022/10/01 04:20:15;;;;;;;;;;;11.00;99.90;;;;;;5027634;28;19921;-79
2022/10/01 04:22:41;;;;;;;;;;;11.10;99.90;;;;;;5027111;28;19948;-78
2022/10/01 04:25:09;;;;;;;;;;;11.10;99.90;;;;;;5028514;28;19960;-78
2022/10/01 04:27:36;;;;;;;;;;;11.30;99.90;;;;;;5027417;28;19921;-79
2022/10/01 04:30:01;;;;;;;;;;;11.20;99.90;;;;;;5027654;28;19921;-78
2022/10/01 04:32:27;;;;;;;;;;;11.20;99.90;;;;;;5026224;28;20028;-79
2022/10/01 04:34:53;;;;;;;;;;;11.20;99.90;;;;;;5026575;28;19917;-78
2022/10/01 04:37:19;;;;;;;;;;;11.20;99.90;;;;;;5027968;28;19924;-79
2022/10/01 04:39:44;;;;;;;;;;;11.10;99.90;;;;;;5027212;28;19932;-80
2022/10/01 04:42:12;;;;;;;;;;;11.10;99.90;;;;;;5026777;28;20316;-80
2022/10/01 04:44:37;;;;;;;;;;;11.10;99.90;;;;;;5027277;28;20747;-81
2022/10/01 04:47:03;;;;;;;;;;;11.10;99.90;;;;;;5024752;28;20342;-80
2022/10/01 04:49:30;;;;;;;;;;;11.20;99.90;;;;;;5026088;28;20407;-79
2022/10/01 04:51:56;;;;;;;;;;;11.30;99.90;;;;;;5027758;28;20650;-81
2022/10/01 04:54:21;;;;;;;;;;;11.30;99.90;;;;;;5026922;28;20026;-79
2022/10/01 04:56:47;;;;;;;;;;;11.30;99.90;;;;;;5010193;28;20007;-78
2022/10/01 04:59:12;;;;;;;;;;;11.40;99.90;;;;;;5032045;28;19952;-79
2022/10/01 05:01:40;;;;;;;;;;;11.40;99.90;;;;;;5027125;28;20024;-81
2022/10/01 05:04:06;;;;;;;;;;;11.50;99.90;;;;;;5025841;28;19921;-80
2022/10/01 05:06:31;;;;;;;;;;;11.40;99.90;;;;;;5025974;28;20303;-79
2022/10/01 05:08:57;;;;;;;;;;;11.50;99.90;;;;;;5026659;28;20466;-80
2022/10/01 05:11:22;;;;;;;;;;;11.50;99.90;;;;;;5027263;28;19924;-79
2022/10/01 05:13:48;;;;;;;;;;;11.50;99.90;;;;;;5027573;28;19921;-80
2022/10/01 05:16:13;;;;;;;;;;;11.40;99.90;;;;;;5027342;28;19988;-79
2022/10/01 05:18:39;;;;;;;;;;;11.40;99.90;;;;;;5026857;28;19928;-79
2022/10/01 05:21:06;;;;;;;;;;;11.50;99.90;;;;;;5027093;28;19921;-80
2022/10/01 05:23:32;;;;;;;;;;;11.50;99.90;;;;;;5025953;28;19951;-81
2022/10/01 05:25:57;;;;;;;;;;;11.40;99.90;;;;;;5025098;28;19917;-79
2022/10/01 05:28:23;;;;;;;;;;;11.40;99.90;;;;;;5026992;28;19924;-80
2022/10/01 05:30:49;;;;;;;;;;;11.40;99.90;;;;;;5027103;28;20104;-80
2022/10/01 05:33:15;;;;;;;;;;;11.40;99.90;;;;;;5026995;28;20696;-80
2022/10/01 05:35:40;;;;;;;;;;;11.50;99.90;;;;;;5026510;28;19917;-78
2022/10/01 05:38:06;;;;;;;;;;;11.50;99.90;;;;;;5027258;28;19921;-79
2022/10/01 05:40:32;;;;;;;;;;;11.40;99.90;;;;;;5027478;28;19913;-77
2022/10/01 05:42:58;;;;;;;;;;;11.40;99.90;;;;;;5026856;28;19963;-77
2022/10/01 05:45:25;;;;;;;;;;;11.50;99.90;;;;;;5025282;28;20364;-77
2022/10/01 05:48:09;;;;;;;;;;;11.40;99.90;;;;;;5025595;28;19925;-82
2022/10/01 05:50:39;;;;;;;;;;;11.50;99.90;;;;;;5025075;28;19928;-78
2022/10/01 05:53:05;;;;;;;;;;;11.40;99.90;;;;;;5027133;28;19974;-78
2022/10/01 05:55:32;;;;;;;;;;;11.30;99.90;;;;;;5026957;28;19917;-79
2022/10/01 05:58:02;;;;;;;;;;;11.40;99.90;;;;;;5026599;28;20089;-78
2022/10/01 06:00:28;;;;;;;;;;;11.30;99.90;;;;;;5029363;28;19917;-78
2022/10/01 06:02:54;;;;;;;;;;;11.30;99.90;;;;;;5030937;28;19928;-78
2022/10/01 06:05:20;;;;;;;;;;;11.30;99.90;;;;;;5029102;28;19920;-78
2022/10/01 06:07:46;;;;;;;;;;;11.30;99.90;;;;;;5028759;28;19917;-78
2022/10/01 06:10:12;;;;;;;;;;;11.40;99.90;;;;;;5026629;28;19917;-78
2022/10/01 06:12:37;;;;;;;;;;;11.40;99.90;;;;;;5029718;28;20014;-78
2022/10/01 06:15:03;;;;;;;;;;;11.50;99.90;;;;;;5031561;28;19999;-77
2022/10/01 06:17:29;;;;;;;;;;;11.40;99.90;;;;;;5029724;28;20669;-77
2022/10/01 06:19:54;;;;;;;;;;;11.40;99.90;;;;;;5029392;28;19917;-80
2022/10/01 06:22:20;;;;;;;;;;;11.30;99.90;;;;;;5030218;28;19949;-79
2022/10/01 06:24:45;;;;;;;;;;;11.40;99.90;;;;;;5028614;28;20075;-77
2022/10/01 06:27:11;;;;;;;;;;;11.40;99.90;;;;;;5030014;28;19913;-83
2022/10/01 06:29:36;;;;;;;;;;;11.40;99.90;;;;;;5029059;28;19993;-80
2022/10/01 06:32:02;;;;;;;;;;;11.50;99.90;;;;;;5026165;28;19971;-78
2022/10/01 06:34:27;;;;;;;;;;;11.60;99.90;;;;;;5022927;28;19924;-77
2022/10/01 06:36:53;;;;;;;;;;;11.60;99.90;;;;;;5028332;28;20502;-79
2022/10/01 06:39:18;;;;;;;;;;;11.60;99.90;;;;;;5016322;28;19955;-78
2022/10/01 06:41:46;;;;;;;;;;;11.50;99.90;;;;;;5020767;28;19952;-77
2022/10/01 06:44:11;;;;;;;;;;;11.40;99.90;;;;;;5027965;28;20643;-78
2022/10/01 06:46:37;;;;;;;;;;;11.50;99.90;;;;;;5028257;28;20414;-80
2022/10/01 06:49:02;;;;;;;;;;;11.50;99.90;;;;;;5023248;28;19920;-80
2022/10/01 06:54:13;;;;;;;;;;;11.50;99.90;;;;;;5018733;28;19963;-79
2022/10/01 06:56:39;;;;;;;;;;;11.50;99.90;;;;;;5016384;28;20040;-79
2022/10/01 06:59:04;;;;;;;;;;;11.50;99.90;;;;;;5025735;28;19999;-80
2022/10/01 07:01:31;;;;;;;;;;;11.50;99.90;;;;;;5025108;28;19925;-80
2022/10/01 07:03:57;;;;;;;;;;;11.50;99.90;;;;;;5028656;28;20522;-80
2022/10/01 07:06:24;;;;;;;;;;;11.50;99.90;;;;;;5024372;28;19989;-80
2022/10/01 07:08:50;;;;;;;;;;;11.50;99.90;;;;;;5017491;28;19913;-80
2022/10/01 07:11:16;;;;;;;;;;;11.50;99.90;;;;;;5013503;28;20357;-80
2022/10/01 07:13:41;;;;;;;;;;;11.60;99.90;;;;;;5028215;28;20047;-81
2022/10/01 07:16:07;;;;;;;;;;;11.50;99.90;;;;;;5019948;28;19924;-80
2022/10/01 07:18:32;;;;;;;;;;;11.60;99.90;;;;;;5026868;28;20446;-79
2022/10/01 07:20:58;;;;;;;;;;;11.50;99.90;;;;;;5025983;28;19957;-82
2022/10/01 07:23:24;;;;;;;;;;;11.60;99.90;;;;;;5028022;28;19925;-79
2022/10/01 07:25:49;;;;;;;;;;;11.60;99.90;;;;;;5028006;28;19921;-81
2022/10/01 07:28:17;;;;;;;;;;;11.70;99.90;;;;;;5026091;28;20465;-80
2022/10/01 07:31:02;;;;;;;;;;;11.60;99.90;;;;;;5028999;28;20731;-77
2022/10/01 07:33:28;;;;;;;;;;;11.70;99.90;;;;;;5021416;28;19917;-78
2022/10/01 07:35:53;;;;;;;;;;;11.80;99.90;;;;;;5011753;28;19920;-78
2022/10/01 07:38:19;;;;;;;;;;;11.80;99.90;;;;;;5016876;28;19917;-78
2022/10/01 07:40:49;;;;;;;;;;;11.80;99.90;;;;;;5026941;28;19917;-78
2022/10/01 07:43:15;;;;;;;;;;;11.80;99.90;;;;;;5026496;28;19955;-78
2022/10/01 07:45:40;;;;;;;;;;;11.80;99.90;;;;;;5027420;28;20804;-78
2022/10/01 07:48:06;;;;;;;;;;;11.80;99.90;;;;;;5026888;28;19944;-79
2022/10/01 07:50:32;;;;;;;;;;;11.70;99.90;;;;;;5010536;28;19941;-79
2022/10/01 07:52:58;;;;;;;;;;;11.80;99.90;;;;;;5022448;28;20381;-80
2022/10/01 07:55:51;;;;;;;;;;;11.80;99.90;;;;;;5025232;28;19917;-83
2022/10/01 07:58:23;;;;;;;;;;;11.80;99.90;;;;;;5022957;28;19920;-83
2022/10/01 08:00:50;;;;;;;;;;;11.90;99.90;;;;;;5023827;28;19921;-81
2022/10/01 08:03:16;;;;;;;;;;;11.90;99.90;;;;;;5037052;28;19966;-79
2022/10/01 08:05:42;;;;;;;;;;;12.10;99.90;;;;;;5027105;28;19916;-79
2022/10/01 08:08:08;;;;;;;;;;;12.00;99.90;;;;;;5022158;28;19964;-79
2022/10/01 08:10:35;;;;;;;;;;;12.10;99.90;;;;;;5024572;28;19917;-79
2022/10/01 08:13:03;;;;;;;;;;;12.20;99.90;;;;;;5024126;28;20007;-79
2022/10/01 08:15:29;;;;;;;;;;;12.30;99.90;;;;;;5027492;28;19917;-79
2022/10/01 08:17:54;;;;;;;;;;;12.30;99.90;;;;;;5026775;28;20002;-78
2022/10/01 08:20:20;;;;;;;;;;;12.20;99.90;;;;;;5026901;28;19952;-79
2022/10/01 08:22:46;;;;;;;;;;;12.30;99.90;;;;;;5026929;28;19917;-79
2022/10/01 08:25:11;;;;;;;;;;;12.30;99.90;;;;;;5028416;28;19964;-79
2022/10/01 08:27:37;;;;;;;;;;;12.50;99.90;;;;;;5028788;28;19913;-79
2022/10/01 08:30:02;;;;;;;;;;;12.60;99.90;;;;;;5028458;28;20493;-79
2022/10/01 08:32:29;;;;;;;;;;;12.50;99.90;;;;;;5023975;28;20004;-79
2022/10/01 08:34:56;;;;;;;;;;;12.50;99.90;;;;;;5040817;28;20469;-79
2022/10/01 08:37:26;;;;;;;;;;;12.50;99.90;;;;;;5026697;28;19924;-78
2022/10/01 08:39:51;;;;;;;;;;;12.50;99.90;;;;;;5025425;28;19909;-79
2022/10/01 08:42:32;;;;;;;;;;;12.40;99.90;;;;;;5028561;28;19913;-79
2022/10/01 08:45:00;;;;;;;;;;;12.50;99.90;;;;;;5026629;28;20047;-79
2022/10/01 08:47:37;;;;;;;;;;;12.50;99.90;;;;;;5027098;28;19920;-79
2022/10/01 08:50:13;;;;;;;;;;;12.50;99.90;;;;;;5025880;28;20427;-80
2022/10/01 08:52:47;;;;;;;;;;;12.60;99.90;;;;;;5025498;28;19920;-80
2022/10/01 08:55:16;;;;;;;;;;;12.70;99.90;;;;;;5026907;28;19939;-80
2022/10/01 08:57:45;;;;;;;;;;;12.80;99.90;;;;;;5028054;28;19918;-80
2022/10/01 09:00:15;;;;;;;;;;;12.80;99.90;;;;;;5013913;28;20463;-80
2022/10/01 09:02:42;;;;;;;;;;;12.90;99.90;;;;;;5028122;28;20300;-80
2022/10/01 09:05:10;;;;;;;;;;;12.90;99.90;;;;;;5028260;28;19916;-80
2022/10/01 09:07:54;;;;;;;;;;;12.80;99.90;;;;;;5028699;28;20722;-79
2022/10/01 09:10:40;;;;;;;;;;;12.70;99.90;;;;;;5022189;28;20461;-80
2022/10/01 09:13:09;;;;;;;;;;;12.80;99.90;;;;;;5028030;28;20051;-80
2022/10/01 09:15:44;;;;;;;;;;;12.90;99.90;;;;;;5027862;28;19920;-79
2022/10/01 09:18:18;;;;;;;;;;;13.00;99.90;;;;;;5027831;28;20483;-80
2022/10/01 09:20:46;;;;;;;;;;;13.00;99.90;;;;;;5020635;28;19917;-80
2022/10/01 09:23:15;;;;;;;;;;;13.10;99.90;;;;;;5022322;28;20453;-79
2022/10/01 09:25:41;;;;;;;;;;;13.10;99.90;;;;;;5025658;28;20412;-80
2022/10/01 09:28:12;;;;;;;;;;;13.00;99.90;;;;;;5026303;28;19921;-80
2022/10/01 09:30:41;;;;;;;;;;;13.00;99.90;;;;;;5014485;28;20003;-80
2022/10/01 09:33:10;;;;;;;;;;;13.00;99.90;;;;;;5025556;28;20410;-79
2022/10/01 09:35:51;;;;;;;;;;;13.00;99.90;;;;;;5030428;28;20017;-80
2022/10/01 09:38:17;;;;;;;;;;;13.00;99.90;;;;;;5031803;28;19914;-80
2022/10/01 09:40:51;;;;;;;;;;;13.10;99.90;;;;;;5028395;28;19913;-80
2022/10/01 09:43:20;;;;;;;;;;;13.10;99.90;;;;;;5030467;28;19916;-80
2022/10/01 09:45:46;;;;;;;;;;;13.10;99.90;;;;;;5030910;28;19913;-80
2022/10/01 09:48:21;;;;;;;;;;;13.00;99.90;;;;;;5031930;28;19913;-80
2022/10/01 09:50:53;;;;;;;;;;;13.10;99.90;;;;;;5030691;28;19915;-80
2022/10/01 09:53:20;;;;;;;;;;;13.10;99.90;;;;;;5031935;28;19916;-80
2022/10/01 09:55:57;;;;;;;;;;;13.20;99.90;;;;;;5030478;28;19921;-80
2022/10/01 09:58:25;;;;;;;;;;;13.10;99.90;;;;;;5029459;28;19924;-80
2022/10/01 10:00:52;;;;;;;;;;;13.20;99.90;;;;;;5027957;28;20805;-80
2022/10/01 10:03:22;;;;;;;;;;;13.30;99.90;;;;;;5023328;28;20427;-80
2022/10/01 10:05:48;;;;;;;;;;;13.20;99.90;;;;;;5028295;28;19924;-81
2022/10/01 10:08:20;;;;;;;;;;;13.30;99.90;;;;;;5028635;28;19917;-80
2022/10/01 10:11:01;;;;;;;;;;;13.20;99.90;;;;;;5029185;28;19917;-80
2022/10/01 10:13:37;;;;;;;;;;;13.30;99.90;;;;;;5017907;28;19917;-83
2022/10/01 10:16:33;;;;;;;;;;;13.20;99.90;;;;;;5030954;28;19917;-83
2022/10/01 10:19:04;;;;;;;;;;;13.40;99.90;;;;;;5017993;28;19992;-83
2022/10/01 10:21:32;;;;;;;;;;;13.40;99.90;;;;;;5028380;28;20480;-82
2022/10/01 10:23:59;;;;;;;;;;;13.50;99.90;;;;;;5028244;28;19952;-79
2022/10/01 10:26:28;;;;;;;;;;;13.50;99.90;;;;;;5028158;28;19928;-78
2022/10/01 10:28:55;;;;;;;;;;;13.50;99.90;;;;;;5030678;28;19910;-79
2022/10/01 10:31:22;;;;;;;;;;;13.50;99.90;;;;;;5015924;28;19928;-79
2022/10/01 10:33:50;;;;;;;;;;;13.50;99.90;;;;;;5029282;28;19921;-80
2022/10/01 10:36:18;;;;;;;;;;;13.50;99.90;;;;;;5030384;28;19917;-80
2022/10/01 10:38:46;;;;;;;;;;;13.40;99.90;;;;;;5028865;28;19924;-80
2022/10/01 10:41:16;;;;;;;;;;;13.60;99.90;;;;;;5027860;28;19917;-80
2022/10/01 10:43:43;;;;;;;;;;;13.60;99.90;;;;;;5042632;28;19917;-80
2022/10/01 10:46:08;;;;;;;;;;;13.70;99.90;;;;;;5027237;28;20353;-78
2022/10/01 10:48:36;;;;;;;;;;;13.80;99.90;;;;;;5026612;28;19991;-77
2022/10/01 10:51:03;;;;;;;;;;;13.80;99.90;;;;;;5028295;28;20008;-77
2022/10/01 10:53:37;;;;;;;;;;;13.80;99.90;;;;;;5027531;28;19921;-79
2022/10/01 10:56:04;;;;;;;;;;;13.90;99.90;;;;;;5029697;28;19917;-78
2022/10/01 10:58:33;;;;;;;;;;;13.90;99.90;;;;;;5024836;28;19917;-77
2022/10/01 11:01:12;;;;;;;;;;;14.00;99.90;;;;;;5024866;28;19918;-78
2022/10/01 11:03:43;;;;;;;;;;;13.90;99.90;;;;;;5013669;28;20693;-78
2022/10/01 11:06:10;;;;;;;;;;;14.00;99.90;;;;;;5017464;28;19917;-79
2022/10/01 11:08:36;;;;;;;;;;;14.00;99.90;;;;;;5017638;28;20474;-79
2022/10/01 11:11:02;;;;;;;;;;;14.00;99.90;;;;;;5013636;28;20296;-78
2022/10/01 11:13:34;;;;;;;;;;;14.00;99.90;;;;;;5027860;28;19917;-78
2022/10/01 11:15:59;;;;;;;;;;;14.00;99.90;;;;;;5013681;28;19921;-80
2022/10/01 11:18:40;;;;;;;;;;;14.10;99.90;;;;;;5018025;28;19927;-79
2022/10/01 11:21:08;;;;;;;;;;;14.20;99.90;;;;;;5013928;28;20011;-80
2022/10/01 11:23:35;;;;;;;;;;;14.40;99.90;;;;;;5014553;28;20102;-79
2022/10/01 11:26:08;;;;;;;;;;;14.40;99.90;;;;;;5025914;28;19964;-78
2022/10/01 11:28:52;;;;;;;;;;;14.50;99.90;;;;;;5027120;28;19921;-78
2022/10/01 11:31:23;;;;;;;;;;;14.60;99.90;;;;;;5027643;28;19917;-77
2022/10/01 11:34:08;;;;;;;;;;;14.60;99.90;;;;;;5027311;28;19985;-77
2022/10/01 11:36:41;;;;;;;;;;;14.60;99.90;;;;;;5023977;28;19951;-77
2022/10/01 11:39:16;;;;;;;;;;;14.60;99.90;;;;;;5026847;28;19917;-78
2022/10/01 11:41:43;;;;;;;;;;;14.50;99.90;;;;;;5027801;28;19935;-78
2022/10/01 11:44:09;;;;;;;;;;;14.60;99.90;;;;;;5013434;28;19947;-78
2022/10/01 11:46:37;;;;;;;;;;;14.60;99.90;;;;;;5022647;28;20418;-78
2022/10/01 11:49:21;;;;;;;;;;;14.50;99.90;;;;;;5023676;28;19917;-77
2022/10/01 11:51:50;;;;;;;;;;;14.60;99.90;;;;;;5026424;28;19924;-78
2022/10/01 11:54:20;;;;;;;;;;;14.70;99.90;;;;;;5031501;28;20761;-78
2022/10/01 11:59:41;;;;;;;;;;;14.70;99.90;;;;;;5019074;28;19944;-77
2022/10/01 12:02:15;;;;;;;;;;;14.70;99.90;;;;;;5026176;28;19917;-78
2022/10/01 12:04:41;;;;;;;;;;;14.80;99.90;;;;;;5026826;28;19929;-78
2022/10/01 12:07:12;;;;;;;;;;;14.80;99.90;;;;;;5026953;28;19917;-78
2022/10/01 12:09:44;;;;;;;;;;;14.80;99.90;;;;;;5025854;28;20447;-79
2022/10/01 12:12:12;;;;;;;;;;;14.80;99.90;;;;;;5020572;28;20000;-78
2022/10/01 12:14:56;;;;;;;;;;;14.80;99.90;;;;;;5026942;28;19913;-78
2022/10/01 12:17:30;;;;;;;;;;;14.90;99.90;;;;;;5025542;28;19928;-78
2022/10/01 12:19:58;;;;;;;;;;;14.90;99.90;;;;;;5024215;28;20414;-78
2022/10/01 12:22:26;;;;;;;;;;;15.00;99.90;;;;;;5027517;28;19912;-79
2022/10/01 12:24:52;;;;;;;;;;;14.90;99.90;;;;;;5023299;28;19960;-78
2022/10/01 12:27:24;;;;;;;;;;;14.90;99.90;;;;;;5024608;28;19920;-78
2022/10/01 12:30:09;;;;;;;;;;;14.80;99.90;;;;;;5025814;28;19917;-78
2022/10/01 12:32:53;;;;;;;;;;;14.90;99.90;;;;;;5019959;28;20550;-78
2022/10/01 12:35:37;;;;;;;;;;;14.90;99.90;;;;;;5019905;28;19929;-78
2022/10/01 12:38:20;;;;;;;;;;;14.90;99.90;;;;;;5026333;28;20420;-78
2022/10/01 12:40:50;;;;;;;;;;;15.00;99.90;;;;;;5028102;28;20003;-78
2022/10/01 12:43:15;;;;;;;;;;;15.00;99.90;;;;;;5025244;28;19920;-78
2022/10/01 12:45:50;;;;;;;;;;;15.00;99.90;;;;;;5027824;28;19913;-78
2022/10/01 12:48:16;;;;;;;;;;;15.10;99.90;;;;;;5022531;28;19918;-78
2022/10/01 12:50:53;;;;;;;;;;;15.20;99.90;;;;;;5028345;28;20656;-78
2022/10/01 12:53:37;;;;;;;;;;;15.20;99.90;;;;;;5026596;28;20447;-78
2022/10/01 12:56:06;;;;;;;;;;;15.20;99.90;;;;;;5025707;28;19987;-78
2022/10/01 12:58:32;;;;;;;;;;;15.20;99.90;;;;;;5026566;28;19913;-78
2022/10/01 13:01:17;;;;;;;;;;;15.30;99.90;;;;;;5028032;28;19946;-78
2022/10/01 13:03:59;;;;;;;;;;;15.40;99.90;;;;;;5028177;28;19960;-78
2022/10/01 13:06:36;;;;;;;;;;;15.50;99.90;;;;;;5025846;28;19917;-78
2022/10/01 13:09:27;;;;;;;;;;;15.50;99.90;;;;;;5027586;28;19913;-78
2022/10/01 13:12:16;;;;;;;;;;;15.50;99.90;;;;;;5012043;28;20348;-78
2022/10/01 13:14:43;;;;;;;;;;;15.50;99.90;;;;;;5024170;28;19913;-78
2022/10/01 13:17:12;;;;;;;;;;;15.40;99.90;;;;;;5037174;28;19940;-78
2022/10/01 13:19:58;;;;;;;;;;;15.40;99.90;;;;;;5019688;28;19916;-78
2022/10/01 13:22:31;;;;;;;;;;;15.40;99.90;;;;;;5028222;28;19921;-78
2022/10/01 13:25:13;;;;;;;;;;;15.50;99.90;;;;;;5021439;28;20728;-78
2022/10/01 13:27:46;;;;;;;;;;;15.50;99.90;;;;;;5040238;28;19913;-79
2022/10/01 13:30:22;;;;;;;;;;;15.50;99.90;;;;;;5022948;28;19913;-78
2022/10/01 13:32:50;;;;;;;;;;;15.50;99.90;;;;;;5026650;28;19913;-78
2022/10/01 13:35:34;;;;;;;;;;;15.60;99.90;;;;;;5025744;28;19913;-78
2022/10/01 13:38:01;;;;;;;;;;;15.70;99.90;;;;;;5027161;28;19913;-78
2022/10/01 13:40:28;;;;;;;;;;;15.80;99.90;;;;;;5027707;28;19917;-78
2022/10/01 13:42:56;;;;;;;;;;;15.80;99.90;;;;;;5027916;28;19913;-78
2022/10/01 13:45:30;;;;;;;;;;;15.80;99.90;;;;;;5026412;28;19949;-78
2022/10/01 13:48:03;;;;;;;;;;;15.80;99.90;;;;;;5027339;28;19916;-78
2022/10/01 13:50:29;;;;;;;;;;;15.80;99.90;;;;;;5027597;28;19988;-78
2022/10/01 13:53:04;;;;;;;;;;;15.80;99.90;;;;;;5027922;28;19959;-79
2022/10/01 13:55:30;;;;;;;;;;;15.80;99.90;;;;;;5027821;28;19913;-78
2022/10/01 13:58:25;;;;;;;;;;;15.80;99.90;;;;;;5026272;28;19952;-78
2022/10/01 14:00:53;;;;;;;;;;;15.90;99.90;;;;;;5016724;28;19913;-77
2022/10/01 14:03:22;;;;;;;;;;;15.90;99.90;;;;;;5026279;28;19974;-78
2022/10/01 14:05:51;;;;;;;;;;;15.90;99.90;;;;;;5027620;28;19913;-78
2022/10/01 14:08:17;;;;;;;;;;;15.90;99.90;;;;;;5027601;28;20311;-78
2022/10/01 14:16:18;;;;;;;;;;;16.10;99.90;;;;;;5016754;28;20674;-78
2022/10/01 14:18:46;;;;;;;;;;;16.00;99.90;;;;;;5025921;28;19928;-78
2022/10/01 14:21:15;;;;;;;;;;;16.10;99.90;;;;;;5027147;28;19913;-78
2022/10/01 14:23:40;;;;;;;;;;;16.00;99.90;;;;;;5028553;28;19929;-78
2022/10/01 14:26:13;;;;;;;;;;;16.10;99.90;;;;;;5029966;28;19917;-78
2022/10/01 14:28:41;;;;;;;;;;;16.10;99.90;;;;;;5029044;28;19913;-77
2022/10/01 14:31:30;;;;;;;;;;;16.10;99.90;;;;;;5029016;28;19913;-78
2022/10/01 14:34:14;;;;;;;;;;;16.10;99.90;;;;;;4985844;28;19921;-78
2022/10/01 14:36:44;;;;;;;;;;;16.20;99.90;;;;;;5022062;28;19918;-78
2022/10/01 14:39:14;;;;;;;;;;;16.20;99.90;;;;;;5026923;28;19917;-78